map of SCY home
SCY - Airport
Location
City:  San Cristóbal, San Cristóbal Island, Galápagos Islands, Ecuador
Near (Alt.):Puerto Baquerizo Moreno
Name:San Cristóbal
ICAO:SEST
IATA:SCY

Details
Type:Airport (Aerodrome, Airfield)
Latitude:0°54'37"S (-0.910205)
Longitude:89°37'03"W (-89.617449)
Datum:WGS 1984
Elevation:62 ft (19 m)
Variation:3.15°E (WMM2015 magnetic declination)
-0.13° annual change
Runways:1
Longest:6214 × 66 ft (1894 × 20 m), paved

Time
Time Zone:UTC-6
Local Time:

Weather
METAR:SEST 161200Z 15012KT 8000 -RADZ SCT006 OVC026 21/20 Q1010 RMK A2984

Related Locations
Nearby:
Farthest:WITG: 12026 mi / 19354 km
Sinabang, AC, ID

Find:

   beyond  
but within

Other Information
Maps:
NOTAMs:
Links:
Sources:

  
  • flag of Ecuador
  • flag of Galápagos Islands
  

Sectional Chart

Flight Planning
at skyvector.com

Satellite Image

Google Maps Satellite view

 

Copyright © 2004-2018 Karl L. Swartz. All rights reserved.
The Great Circle Mapper name and logo are trademarks of the Great Circle Mapper.
All other trademarks mentioned herein belong to their respective owners.
Please see credits for attibutions and further copyright information.

  Follow gcmap on Facebook Follow gcmap on Twitter Follow gcmap on Google+ GCmap on LinkedIn

hCard Microformat

Geo Microformat